Time;durP1;ratioP1;P1;durP2;ratioP2;P2;SDS_P1;SDS_P2;PMS_P1;PMS_P2;Temp;Humidity;BMP_temperature;BMP_pressure;BME280_temperature;BME280_humidity;BME280_pressure;Samples;Min_cycle;Max_cycle;Signal;HPM_P1;HPM_P2
2023/06/15 00:00:12;;;;;;;5.97;2.20;;;17.10;99.90;;;;;;5119416;27;20050;-72
2023/06/15 00:02:39;;;;;;;5.28;1.98;;;17.00;99.90;;;;;;5136208;27;20050;-72
2023/06/15 00:05:05;;;;;;;3.53;2.10;;;17.00;99.90;;;;;;5136391;27;20042;-72
2023/06/15 00:07:31;;;;;;;4.53;1.80;;;17.00;99.90;;;;;;5137336;27;20051;-72
2023/06/15 00:09:56;;;;;;;3.22;2.03;;;17.00;99.90;;;;;;5135919;27;20039;-71
2023/06/15 00:12:23;;;;;;;2.90;1.80;;;16.90;99.90;;;;;;5137004;27;20039;-71
2023/06/15 00:14:49;;;;;;;3.13;1.80;;;16.80;99.90;;;;;;5137153;27;20103;-71
2023/06/15 00:17:15;;;;;;;3.88;2.30;;;16.80;99.90;;;;;;5135673;27;20491;-71
2023/06/15 00:19:41;;;;;;;3.60;2.17;;;16.70;99.90;;;;;;5136099;27;20043;-71
2023/06/15 00:22:09;;;;;;;3.58;2.05;;;16.70;99.90;;;;;;5136910;27;20537;-71
2023/06/15 00:24:35;;;;;;;4.72;2.35;;;16.60;99.90;;;;;;5136776;27;20141;-72
2023/06/15 00:27:01;;;;;;;3.22;2.13;;;16.60;99.90;;;;;;5136768;27;20425;-72
2023/06/15 00:29:27;;;;;;;4.20;2.22;;;16.50;99.90;;;;;;5136833;27;20441;-72
2023/06/15 00:31:52;;;;;;;3.50;1.83;;;16.50;99.90;;;;;;5136780;27;20047;-72
2023/06/15 00:34:18;;;;;;;4.78;2.35;;;16.40;99.90;;;;;;5136823;27;20134;-72
2023/06/15 00:36:44;;;;;;;3.33;2.10;;;16.40;99.90;;;;;;5136571;27;20043;-71
2023/06/15 00:39:09;;;;;;;3.10;2.20;;;16.30;99.90;;;;;;5136732;27;20411;-71
2023/06/15 00:41:43;;;;;;;5.57;2.38;;;16.30;99.90;;;;;;5135065;27;20050;-71
2023/06/15 00:44:09;;;;;;;2.92;1.75;;;16.30;99.90;;;;;;5135453;27;20127;-71
2023/06/15 00:46:35;;;;;;;4.25;2.33;;;16.20;99.90;;;;;;5118381;27;20050;-72
2023/06/15 00:49:02;;;;;;;3.30;1.92;;;16.10;99.90;;;;;;5136520;27;20047;-72
2023/06/15 00:51:28;;;;;;;5.72;2.63;;;16.10;99.90;;;;;;5136719;27;20047;-71
2023/06/15 00:53:53;;;;;;;4.03;2.25;;;16.10;99.90;;;;;;5135603;27;20475;-72
2023/06/15 00:56:22;;;;;;;3.35;1.92;;;16.00;99.90;;;;;;5135372;27;20387;-72
2023/06/15 00:58:49;;;;;;;4.47;2.50;;;16.00;99.90;;;;;;5118747;27;20047;-72
2023/06/15 01:01:15;;;;;;;3.58;2.13;;;16.00;99.90;;;;;;5135116;27;20078;-72
2023/06/15 01:03:44;;;;;;;2.80;2.10;;;15.90;99.90;;;;;;5136703;27;20148;-72
2023/06/15 01:06:13;;;;;;;4.22;2.10;;;15.90;99.90;;;;;;5119350;27;20054;-72
2023/06/15 01:08:42;;;;;;;3.00;2.20;;;15.90;99.90;;;;;;5101482;27;20406;-71
2023/06/15 01:11:08;;;;;;;3.92;2.30;;;15.90;99.90;;;;;;5136038;27;20050;-72
2023/06/15 01:13:35;;;;;;;3.90;1.98;;;15.90;99.90;;;;;;5135016;27;20078;-71
2023/06/15 01:16:05;;;;;;;3.88;2.40;;;15.80;99.90;;;;;;5135237;27;20087;-72
2023/06/15 01:18:33;;;;;;;3.40;2.30;;;15.80;99.90;;;;;;5134621;27;20047;-72
2023/06/15 01:21:01;;;;;;;3.70;2.10;;;15.80;99.90;;;;;;5134888;27;20039;-71
2023/06/15 01:23:40;;;;;;;3.65;2.25;;;15.80;99.90;;;;;;5117671;27;20134;-71
2023/06/15 01:26:08;;;;;;;3.88;2.22;;;15.70;99.90;;;;;;5135712;27;20101;-71
2023/06/15 01:28:40;;;;;;;3.88;2.20;;;15.70;99.90;;;;;;5135042;27;20058;-71
2023/06/15 01:31:07;;;;;;;2.75;1.85;;;15.70;99.90;;;;;;5133801;27;20090;-72
2023/06/15 01:33:33;;;;;;;3.92;2.17;;;15.60;99.90;;;;;;5134652;27;20090;-72
2023/06/15 01:35:58;;;;;;;3.30;2.10;;;15.60;99.90;;;;;;5134946;27;20042;-72
2023/06/15 01:38:28;;;;;;;3.83;2.00;;;15.50;99.90;;;;;;5136271;27;20118;-72
2023/06/15 01:40:56;;;;;;;4.55;2.15;;;15.50;99.90;;;;;;5134194;27;20043;-72
2023/06/15 01:43:26;;;;;;;4.28;2.05;;;15.50;99.90;;;;;;5133955;27;20509;-72
2023/06/15 01:45:52;;;;;;;4.13;2.40;;;15.50;99.90;;;;;;5135379;27;20509;-71
2023/06/15 01:48:20;;;;;;;4.25;2.20;;;15.50;99.90;;;;;;5134890;27;20349;-72
2023/06/15 01:50:46;;;;;;;3.05;2.20;;;15.50;99.90;;;;;;5134638;27;20043;-71
2023/06/15 01:53:11;;;;;;;3.47;2.20;;;15.50;99.90;;;;;;5117183;27;20054;-71
2023/06/15 01:55:37;;;;;;;4.13;2.50;;;15.40;99.90;;;;;;5134992;27;20043;-71
2023/06/15 01:58:03;;;;;;;4.10;2.10;;;15.40;99.90;;;;;;5116831;27;20035;-71
2023/06/15 02:00:29;;;;;;;6.00;2.70;;;15.30;99.90;;;;;;5133967;27;20043;-71
2023/06/15 02:02:55;;;;;;;4.63;2.13;;;15.30;99.90;;;;;;5135092;27;20051;-71
2023/06/15 02:05:21;;;;;;;3.47;2.17;;;15.30;99.90;;;;;;5134965;27;20054;-71
2023/06/15 02:07:46;;;;;;;4.47;2.50;;;15.30;99.90;;;;;;5133961;27;20058;-71
2023/06/15 02:10:12;;;;;;;3.75;2.42;;;15.20;99.90;;;;;;5134347;27;20360;-71
2023/06/15 02:12:38;;;;;;;4.53;2.40;;;15.20;99.90;;;;;;5135504;27;20465;-71
2023/06/15 02:15:04;;;;;;;3.40;2.45;;;15.20;99.90;;;;;;5134971;27;20043;-71
2023/06/15 02:17:38;;;;;;;4.18;2.30;;;15.10;99.90;;;;;;5116402;27;20468;-71
2023/06/15 02:20:08;;;;;;;4.13;2.20;;;15.10;99.90;;;;;;5134058;27;20467;-71
2023/06/15 02:22:34;;;;;;;4.55;2.35;;;15.10;99.90;;;;;;5134593;27;20124;-71
2023/06/15 02:24:59;;;;;;;4.57;2.38;;;15.00;99.90;;;;;;5135107;27;20051;-72
2023/06/15 02:27:25;;;;;;;2.88;2.22;;;15.00;99.90;;;;;;5133745;27;20043;-71
2023/06/15 02:29:51;;;;;;;5.22;2.53;;;15.00;99.90;;;;;;5134987;27;20115;-71
2023/06/15 02:32:35;;;;;;;5.30;2.40;;;15.00;99.90;;;;;;5116599;27;20537;-71
2023/06/15 02:35:05;;;;;;;3.75;2.50;;;15.00;99.90;;;;;;5133359;27;20039;-71
2023/06/15 02:37:31;;;;;;;3.40;2.22;;;14.90;99.90;;;;;;5133486;27;20134;-71
2023/06/15 02:39:57;;;;;;;5.18;2.33;;;14.90;99.90;;;;;;5135761;27;20086;-70
2023/06/15 02:42:23;;;;;;;5.20;2.58;;;14.80;99.90;;;;;;5141894;27;20541;-71
2023/06/15 02:44:48;;;;;;;4.85;2.35;;;14.80;99.90;;;;;;5143684;27;20091;-71
2023/06/15 02:47:14;;;;;;;3.50;2.35;;;14.80;99.90;;;;;;5162181;27;20050;-71
2023/06/15 02:49:40;;;;;;;3.17;2.00;;;14.70;99.90;;;;;;5144194;27;20061;-71
2023/06/15 02:52:06;;;;;;;3.38;2.35;;;14.70;99.90;;;;;;5127274;27;20103;-71
2023/06/15 02:54:31;;;;;;;3.83;2.38;;;14.70;99.90;;;;;;5144035;27;20141;-71
2023/06/15 02:56:57;;;;;;;3.72;2.47;;;14.70;99.90;;;;;;5143614;27;20402;-72
2023/06/15 02:59:25;;;;;;;3.55;2.60;;;14.70;99.90;;;;;;5162040;27;20046;-72
2023/06/15 03:01:53;;;;;;;5.05;2.63;;;14.70;99.90;;;;;;5162561;27;20086;-71
2023/06/15 03:04:23;;;;;;;6.45;2.53;;;14.70;99.90;;;;;;5162800;27;20382;-72
2023/06/15 03:06:49;;;;;;;4.57;2.63;;;14.60;99.90;;;;;;5162500;27;20039;-72
2023/06/15 03:09:20;;;;;;;5.10;2.78;;;14.60;99.90;;;;;;5142892;27;20084;-72
2023/06/15 03:11:46;;;;;;;5.10;2.70;;;14.60;99.90;;;;;;5143349;27;20129;-72
2023/06/15 03:14:12;;;;;;;5.18;2.90;;;14.50;99.90;;;;;;5143753;27;20050;-72
2023/06/15 03:16:46;;;;;;;5.18;2.85;;;14.50;99.90;;;;;;5143352;27;20039;-72
2023/06/15 03:19:15;;;;;;;4.25;2.85;;;14.50;99.90;;;;;;5143712;27;20035;-71
2023/06/15 03:21:41;;;;;;;3.38;2.70;;;14.40;99.90;;;;;;5143532;27;20448;-72
2023/06/15 03:24:08;;;;;;;5.80;3.33;;;14.40;99.90;;;;;;5143411;27;20081;-71
2023/06/15 03:26:36;;;;;;;5.30;2.83;;;14.40;99.90;;;;;;5143218;27;20538;-72
2023/06/15 03:29:02;;;;;;;4.85;2.83;;;14.30;99.90;;;;;;5144241;27;20418;-72
2023/06/15 03:31:33;;;;;;;4.05;2.60;;;14.30;99.90;;;;;;5143396;27;20054;-72
2023/06/15 03:34:00;;;;;;;4.38;2.53;;;14.30;99.90;;;;;;5144186;27;20490;-72
2023/06/15 03:36:29;;;;;;;6.03;2.90;;;14.30;99.90;;;;;;5144115;27;20042;-71
2023/06/15 03:38:56;;;;;;;4.32;2.65;;;14.30;99.90;;;;;;5161569;27;20620;-71
2023/06/15 03:41:22;;;;;;;3.65;3.05;;;14.30;99.90;;;;;;5143060;27;20046;-71
2023/06/15 03:43:48;;;;;;;5.32;2.90;;;14.20;99.90;;;;;;5143199;27;20600;-71
2023/06/15 03:46:13;;;;;;;4.57;2.80;;;14.20;99.90;;;;;;5162134;27;20052;-70
2023/06/15 03:48:40;;;;;;;5.55;2.70;;;14.20;99.90;;;;;;5143187;27;20386;-71
2023/06/15 03:51:05;;;;;;;3.95;3.20;;;14.10;99.90;;;;;;5161500;27;20122;-70
2023/06/15 03:53:31;;;;;;;4.15;2.70;;;14.20;99.90;;;;;;5140431;27;20455;-71
2023/06/15 03:55:57;;;;;;;6.13;2.38;;;14.10;99.90;;;;;;5122735;27;20121;-71
2023/06/15 03:58:24;;;;;;;5.45;3.03;;;14.20;99.90;;;;;;5139453;27;20421;-71
2023/06/15 04:00:51;;;;;;;4.40;3.08;;;14.30;99.90;;;;;;5157886;27;20517;-71
2023/06/15 04:03:16;;;;;;;6.60;3.10;;;14.30;99.90;;;;;;5139646;27;20089;-70
2023/06/15 04:05:42;;;;;;;4.85;3.33;;;14.30;99.90;;;;;;5122736;27;20082;-71
2023/06/15 04:08:08;;;;;;;4.60;2.95;;;14.30;99.90;;;;;;5158535;27;20035;-71
2023/06/15 04:10:34;;;;;;;5.35;3.10;;;14.40;99.90;;;;;;5122572;27;20130;-70
2023/06/15 04:13:00;;;;;;;5.90;3.05;;;14.40;99.90;;;;;;5157876;27;20048;-70
2023/06/15 04:15:26;;;;;;;4.50;2.85;;;14.40;99.90;;;;;;5157849;27;20129;-71
2023/06/15 04:17:52;;;;;;;4.22;2.70;;;14.50;99.90;;;;;;5157756;27;20088;-71
2023/06/15 04:20:17;;;;;;;7.03;2.75;;;14.50;99.90;;;;;;5139797;27;20085;-70
2023/06/15 04:22:43;;;;;;;4.10;2.80;;;14.60;99.90;;;;;;5122217;27;20053;-71
2023/06/15 04:25:09;;;;;;;4.50;3.00;;;14.60;99.90;;;;;;5139076;27;20050;-71
2023/06/15 04:27:35;;;;;;;5.25;3.35;;;14.60;99.90;;;;;;5139351;27;20050;-71
2023/06/15 04:30:05;;;;;;;4.60;3.03;;;14.60;99.90;;;;;;5139660;27;20391;-71
2023/06/15 04:32:32;;;;;;;3.67;2.90;;;14.60;99.90;;;;;;5157514;27;20047;-71
2023/06/15 04:34:59;;;;;;;4.65;2.92;;;14.70;99.90;;;;;;5139181;27;20121;-71
2023/06/15 04:37:28;;;;;;;4.28;2.83;;;14.70;99.90;;;;;;5157407;27;20226;-70
2023/06/15 04:39:59;;;;;;;5.13;3.05;;;14.80;99.90;;;;;;5122351;27;20087;-70
2023/06/15 04:42:26;;;;;;;6.38;3.58;;;14.90;99.90;;;;;;5157899;27;20051;-71
2023/06/15 04:44:53;;;;;;;5.40;2.97;;;14.90;99.90;;;;;;5139014;27;20103;-71
2023/06/15 04:47:18;;;;;;;3.85;3.00;;;14.90;99.90;;;;;;5157304;27;20433;-71
2023/06/15 04:49:44;;;;;;;4.78;3.22;;;14.90;99.90;;;;;;5157697;27;20103;-71
2023/06/15 04:52:10;;;;;;;6.10;3.03;;;15.00;99.90;;;;;;5138865;27;20133;-71
2023/06/15 04:54:36;;;;;;;4.72;3.10;;;15.10;99.90;;;;;;5138769;27;20581;-71
2023/06/15 04:57:02;;;;;;;4.75;3.30;;;15.20;99.90;;;;;;5138532;27;20103;-71
2023/06/15 04:59:28;;;;;;;5.00;3.25;;;15.30;99.90;;;;;;5157266;27;20467;-71
2023/06/15 05:01:53;;;;;;;5.55;3.60;;;15.40;99.90;;;;;;5105552;27;20123;-71
2023/06/15 05:04:22;;;;;;;5.55;3.50;;;15.50;99.90;;;;;;5156698;27;20046;-71
2023/06/15 05:06:48;;;;;;;6.78;3.38;;;15.60;99.90;;;;;;5138388;27;20049;-71
2023/06/15 05:09:13;;;;;;;5.35;3.33;;;15.70;99.90;;;;;;5156585;27;20042;-70
2023/06/15 05:11:39;;;;;;;5.07;3.05;;;15.90;99.90;;;;;;5157717;27;20074;-71
2023/06/15 05:14:05;;;;;;;5.28;3.60;;;16.00;99.90;;;;;;5121710;27;20042;-71
2023/06/15 05:16:30;;;;;;;5.55;2.92;;;16.00;99.90;;;;;;5138437;27;20542;-71
2023/06/15 05:18:56;;;;;;;5.63;3.20;;;16.10;99.90;;;;;;5120932;27;20051;-70
2023/06/15 05:21:22;;;;;;;4.43;3.45;;;16.20;99.90;;;;;;5156408;27;20042;-71
2023/06/15 05:23:48;;;;;;;6.20;3.60;;;16.30;99.90;;;;;;5156965;27;20054;-71
2023/06/15 05:26:15;;;;;;;4.40;3.10;;;16.40;99.90;;;;;;5138225;27;20038;-71
2023/06/15 05:28:40;;;;;;;6.80;3.00;;;16.50;99.90;;;;;;5156090;27;20483;-71
2023/06/15 05:31:08;;;;;;;5.25;3.58;;;16.60;99.90;;;;;;5137716;27;20053;-71
2023/06/15 05:33:35;;;;;;;4.45;3.40;;;16.60;99.90;;;;;;5121080;27;20043;-71
2023/06/15 05:36:01;;;;;;;6.80;3.20;;;16.80;99.90;;;;;;5121009;27;20042;-71
2023/06/15 05:38:27;;;;;;;7.35;3.38;;;16.90;99.90;;;;;;5137738;27;20038;-71
2023/06/15 05:40:52;;;;;;;4.47;3.03;;;17.00;99.90;;;;;;5137679;27;20460;-71
2023/06/15 05:43:19;;;;;;;6.10;3.15;;;17.10;99.90;;;;;;5137772;27;20390;-71
2023/06/15 05:45:47;;;;;;;4.88;2.80;;;17.20;99.90;;;;;;5137867;27;20085;-71
2023/06/15 05:48:13;;;;;;;4.40;3.05;;;17.30;99.90;;;;;;5121002;27;20046;-71
2023/06/15 05:50:39;;;;;;;4.43;2.90;;;17.40;99.90;;;;;;5137459;27;20042;-72
2023/06/15 05:53:05;;;;;;;6.03;2.72;;;17.50;99.90;;;;;;5155567;27;20122;-72
2023/06/15 05:55:33;;;;;;;5.45;3.00;;;17.60;99.90;;;;;;5137662;27;20089;-72
2023/06/15 05:57:59;;;;;;;3.70;2.40;;;17.70;99.90;;;;;;5155765;27;20046;-71
2023/06/15 06:00:25;;;;;;;4.30;2.55;;;17.80;99.90;;;;;;5138249;27;20042;-72
2023/06/15 06:02:52;;;;;;;4.78;2.53;;;17.90;99.90;;;;;;5156301;27;20134;-72
2023/06/15 06:05:18;;;;;;;4.55;2.65;;;18.00;99.90;;;;;;5138314;27;20051;-70
2023/06/15 06:07:47;;;;;;;4.88;2.85;;;18.00;99.90;;;;;;5137330;27;20126;-71
2023/06/15 06:10:13;;;;;;;4.43;2.80;;;18.20;99.90;;;;;;5120730;27;20126;-70
2023/06/15 06:12:39;;;;;;;5.32;2.42;;;18.30;99.90;;;;;;5155572;27;20122;-63
2023/06/15 06:15:05;;;;;;;4.93;2.20;;;18.40;99.90;;;;;;5137707;27;20075;-62
2023/06/15 06:17:31;;;;;;;3.88;2.47;;;18.50;99.90;;;;;;5154964;27;20047;-63
2023/06/15 06:19:57;;;;;;;4.03;2.40;;;18.60;99.90;;;;;;5155681;27;20038;-63
2023/06/15 06:22:23;;;;;;;4.60;2.50;;;18.60;99.90;;;;;;5156305;27;20043;-63
2023/06/15 06:24:48;;;;;;;4.65;2.42;;;18.70;99.90;;;;;;5155561;27;20046;-64
2023/06/15 06:27:14;;;;;;;3.85;2.22;;;18.90;99.90;;;;;;5155385;27;20428;-64
2023/06/15 06:29:40;;;;;;;4.20;2.10;;;19.00;99.90;;;;;;5155129;27;20429;-63
2023/06/15 06:32:07;;;;;;;2.92;2.05;;;19.10;99.90;;;;;;5155215;27;20050;-64
2023/06/15 06:34:35;;;;;;;3.78;2.30;;;19.30;99.90;;;;;;5155798;27;20043;-64
2023/06/15 06:37:05;;;;;;;4.75;2.15;;;19.30;99.90;;;;;;5155223;27;20047;-64
2023/06/15 06:39:31;;;;;;;5.80;2.15;;;19.40;99.90;;;;;;5155210;27;20383;-64
2023/06/15 06:41:57;;;;;;;3.92;2.35;;;19.50;99.90;;;;;;5156350;27;20076;-65
2023/06/15 06:44:23;;;;;;;5.45;2.33;;;19.60;99.90;;;;;;5155505;27;20050;-64
2023/06/15 06:46:48;;;;;;;4.63;2.10;;;19.80;99.90;;;;;;5155211;27;20046;-64
2023/06/15 06:49:14;;;;;;;2.85;2.00;;;19.90;99.90;;;;;;5155202;27;20053;-64
2023/06/15 06:51:40;;;;;;;3.80;1.88;;;20.00;99.90;;;;;;5155216;27;20518;-64
2023/06/15 06:54:06;;;;;;;3.30;1.95;;;20.10;99.90;;;;;;5119634;27;20133;-64
2023/06/15 06:56:32;;;;;;;3.63;2.03;;;20.20;99.90;;;;;;5155974;27;20075;-64
2023/06/15 06:58:57;;;;;;;3.35;2.13;;;20.30;99.90;;;;;;5154872;27;20370;-64
2023/06/15 07:01:24;;;;;;;3.78;2.00;;;20.40;99.90;;;;;;5155126;27;20080;-64
2023/06/15 07:03:50;;;;;;;6.00;2.45;;;20.50;99.90;;;;;;5154463;27;20045;-65
2023/06/15 07:06:15;;;;;;;2.83;1.90;;;20.60;99.90;;;;;;5154825;27;20386;-65
2023/06/15 07:08:41;;;;;;;3.05;1.63;;;20.70;99.90;;;;;;5155701;27;20523;-64
2023/06/15 07:11:07;;;;;;;3.95;1.88;;;20.80;99.90;;;;;;5154950;27;20046;-65
2023/06/15 07:13:33;;;;;;;3.90;2.10;;;20.90;99.90;;;;;;5155178;27;20388;-64
2023/06/15 07:15:59;;;;;;;3.17;2.05;;;21.00;99.90;;;;;;5137358;27;20117;-65
2023/06/15 07:18:25;;;;;;;3.78;1.70;;;21.10;99.90;;;;;;5155385;27;20523;-64
2023/06/15 07:20:54;;;;;;;3.20;2.00;;;21.30;99.90;;;;;;5155384;27;20379;-64
2023/06/15 07:23:21;;;;;;;2.88;1.92;;;21.40;99.90;;;;;;5154783;27;20407;-64
2023/06/15 07:25:50;;;;;;;2.60;1.60;;;21.50;99.90;;;;;;5154821;27;20095;-63
2023/06/15 07:28:17;;;;;;;3.83;2.10;;;21.60;99.90;;;;;;5155475;27;20500;-64
2023/06/15 07:30:44;;;;;;;3.55;1.90;;;21.70;99.90;;;;;;5159166;27;20043;-64
2023/06/15 07:33:10;;;;;;;3.22;1.90;;;21.80;99.90;;;;;;5158544;27;20503;-64
2023/06/15 07:35:36;;;;;;;3.25;2.10;;;21.90;99.90;;;;;;5159144;27;20051;-63
2023/06/15 07:38:02;;;;;;;3.38;2.10;;;22.10;99.90;;;;;;5140590;27;20475;-63
2023/06/15 07:40:28;;;;;;;2.58;1.85;;;22.10;99.90;;;;;;5158197;27;20086;-64
2023/06/15 07:42:53;;;;;;;4.55;1.90;;;22.30;99.90;;;;;;5158965;27;20054;-64
2023/06/15 07:45:19;;;;;;;3.95;2.03;;;22.30;99.90;;;;;;5158414;27;20039;-64
2023/06/15 07:47:45;;;;;;;4.00;1.98;;;22.30;99.90;;;;;;5158318;27;20038;-63
2023/06/15 07:50:11;;;;;;;4.03;2.20;;;22.40;99.90;;;;;;5158282;27;20471;-64
2023/06/15 07:52:36;;;;;;;3.33;1.80;;;22.50;99.90;;;;;;5158203;27;20201;-64
2023/06/15 07:55:03;;;;;;;4.65;1.95;;;22.60;99.90;;;;;;5158142;27;20056;-64
2023/06/15 07:57:28;;;;;;;3.95;2.03;;;22.70;99.90;;;;;;5122684;27;20118;-63
2023/06/15 07:59:54;;;;;;;3.20;1.77;;;22.90;99.90;;;;;;5158058;27;20546;-64
2023/06/15 08:02:20;;;;;;;4.00;1.90;;;22.90;99.90;;;;;;5139769;27;20038;-63
2023/06/15 08:04:46;;;;;;;4.85;2.10;;;22.90;99.90;;;;;;5157991;27;20042;-63
2023/06/15 08:07:12;;;;;;;3.40;2.00;;;23.00;99.90;;;;;;5158678;27;20091;-64
2023/06/15 08:09:38;;;;;;;5.82;1.83;;;23.10;99.90;;;;;;5158485;27;20038;-63
2023/06/15 08:12:04;;;;;;;3.42;1.80;;;23.10;99.90;;;;;;5158739;27;20359;-64
2023/06/15 08:14:30;;;;;;;3.88;1.70;;;23.20;99.90;;;;;;5157901;27;20050;-64
2023/06/15 08:16:55;;;;;;;6.13;2.17;;;23.30;99.90;;;;;;5157591;27;20042;-64
2023/06/15 08:19:21;;;;;;;2.90;2.03;;;23.40;99.90;;;;;;5158240;27;20089;-64
2023/06/15 08:21:47;;;;;;;3.67;1.88;;;23.40;99.90;;;;;;5157705;27;20380;-63
2023/06/15 08:24:13;;;;;;;5.10;2.10;;;23.50;99.90;;;;;;5140157;27;20105;-64
2023/06/15 08:26:38;;;;;;;4.80;2.22;;;23.70;99.90;;;;;;5157488;27;20095;-63
2023/06/15 08:29:04;;;;;;;3.70;1.95;;;23.90;99.90;;;;;;5157535;27;20041;-63
2023/06/15 08:31:31;;;;;;;4.68;2.00;;;24.00;99.90;;;;;;5157352;27;20125;-62
2023/06/15 08:33:57;;;;;;;4.00;2.25;;;24.10;99.90;;;;;;5157333;27;20117;-62
2023/06/15 08:36:23;;;;;;;4.25;1.75;;;24.20;99.90;;;;;;5158276;27;20126;-62
2023/06/15 08:38:49;;;;;;;3.22;2.10;;;24.40;99.90;;;;;;5156792;27;20512;-62
2023/06/15 08:41:19;;;;;;;3.25;2.08;;;24.40;99.90;;;;;;5138993;27;20047;-62
2023/06/15 08:43:46;;;;;;;5.13;2.13;;;24.50;99.90;;;;;;5157265;27;20066;-62
2023/06/15 08:46:12;;;;;;;3.00;2.10;;;24.50;99.90;;;;;;5157125;27;20125;-62
2023/06/15 08:48:39;;;;;;;2.53;1.60;;;24.50;99.90;;;;;;5157181;27;20043;-63
2023/06/15 08:51:07;;;;;;;3.42;1.90;;;24.50;99.90;;;;;;5157454;27;20104;-62
2023/06/15 08:53:34;;;;;;;3.72;1.73;;;24.70;99.90;;;;;;5157082;27;20089;-62
2023/06/15 08:56:00;;;;;;;3.00;2.00;;;24.80;99.90;;;;;;5157092;27;20082;-62
2023/06/15 08:58:26;;;;;;;3.15;1.95;;;24.90;99.90;;;;;;5156896;27;20486;-62
2023/06/15 09:00:54;;;;;;;5.07;1.77;;;24.90;99.90;;;;;;5157108;27;20042;-62
2023/06/15 09:03:20;;;;;;;3.50;1.70;;;25.10;99.90;;;;;;5157102;27;20360;-63
2023/06/15 09:05:47;;;;;;;3.50;1.83;;;25.20;99.90;;;;;;5156757;27;20057;-62
2023/06/15 09:08:13;;;;;;;4.45;1.80;;;25.30;99.90;;;;;;5156702;27;20034;-62
2023/06/15 09:10:41;;;;;;;4.40;2.00;;;25.30;99.90;;;;;;5156729;27;20050;-62
2023/06/15 09:13:15;;;;;;;3.85;1.83;;;25.40;99.90;;;;;;5156712;27;20042;-62
2023/06/15 09:15:43;;;;;;;3.55;1.88;;;25.50;99.90;;;;;;5156697;27;20047;-62
2023/06/15 09:18:10;;;;;;;3.92;1.73;;;25.70;99.90;;;;;;5137871;27;20075;-62
2023/06/15 09:20:40;;;;;;;4.50;2.10;;;25.80;99.90;;;;;;5156579;27;20065;-62
2023/06/15 09:23:10;;;;;;;3.58;1.83;;;25.90;99.80;;;;;;5156566;27;20043;-62
2023/06/15 09:25:36;;;;;;;3.28;1.80;;;25.90;99.60;;;;;;5156361;27;20129;-63
2023/06/15 09:28:06;;;;;;;4.93;1.95;;;26.00;99.40;;;;;;5138130;27;20055;-62
2023/06/15 09:30:37;;;;;;;2.53;1.58;;;26.10;99.40;;;;;;5138965;27;20054;-62
2023/06/15 09:33:23;;;;;;;2.80;1.80;;;26.10;99.00;;;;;;5137852;27;20043;-62
2023/06/15 09:36:02;;;;;;;4.03;1.92;;;26.20;99.20;;;;;;5155773;27;20097;-62
2023/06/15 09:38:42;;;;;;;3.28;1.88;;;26.50;99.10;;;;;;5156184;27;20413;-62
2023/06/15 09:41:09;;;;;;;2.67;1.80;;;26.70;99.00;;;;;;5155887;27;20061;-62
2023/06/15 09:43:38;;;;;;;3.67;2.13;;;26.80;98.30;;;;;;5156020;27;20095;-62
2023/06/15 09:46:16;;;;;;;2.95;1.75;;;26.70;97.60;;;;;;5156071;27;20059;-61
2023/06/15 09:48:44;;;;;;;3.50;1.98;;;26.60;97.00;;;;;;5156297;27;20441;-61
2023/06/15 09:51:10;;;;;;;3.00;1.90;;;26.70;96.80;;;;;;5155888;27;20122;-62
2023/06/15 09:53:39;;;;;;;2.65;1.90;;;26.80;96.40;;;;;;5155852;27;20043;-62
2023/06/15 09:56:05;;;;;;;3.67;1.90;;;26.80;96.20;;;;;;5156615;27;20042;-61
2023/06/15 09:58:31;;;;;;;3.50;2.10;;;26.90;95.90;;;;;;5155704;27;20093;-62
2023/06/15 10:00:57;;;;;;;5.70;2.10;;;26.70;95.50;;;;;;5155827;27;20086;-62
2023/06/15 10:03:25;;;;;;;3.30;1.80;;;26.70;95.40;;;;;;5137389;27;20070;-62
2023/06/15 10:05:58;;;;;;;3.05;2.10;;;26.80;95.60;;;;;;5155581;27;20049;-63
2023/06/15 10:08:26;;;;;;;3.28;2.10;;;26.90;95.80;;;;;;5156201;27;20050;-63
2023/06/15 10:10:54;;;;;;;4.22;2.17;;;27.10;95.50;;;;;;5137114;27;20046;-62
2023/06/15 10:13:29;;;;;;;2.72;1.92;;;27.10;95.20;;;;;;5155673;27;20465;-62
2023/06/15 10:15:58;;;;;;;5.57;2.00;;;27.10;95.00;;;;;;5155871;27;20376;-62
2023/06/15 10:18:25;;;;;;;2.75;2.10;;;27.20;94.70;;;;;;5156103;27;20341;-63
2023/06/15 10:20:54;;;;;;;3.47;2.15;;;27.40;94.90;;;;;;5156019;27;20539;-62
2023/06/15 10:23:27;;;;;;;4.43;1.98;;;27.50;94.50;;;;;;5155251;27;20054;-63
2023/06/15 10:25:57;;;;;;;3.78;2.08;;;27.60;94.20;;;;;;5155733;27;20086;-63
2023/06/15 10:28:28;;;;;;;3.10;1.83;;;27.60;93.90;;;;;;5155984;27;20043;-62
2023/06/15 10:31:00;;;;;;;3.60;2.40;;;27.60;93.40;;;;;;5155428;27;20050;-62
2023/06/15 10:33:35;;;;;;;2.75;1.80;;;27.70;94.00;;;;;;5155253;27;20054;-65
2023/06/15 10:36:22;;;;;;;2.95;1.90;;;27.80;93.40;;;;;;5156141;27;20053;-62
2023/06/15 10:38:51;;;;;;;3.88;2.03;;;27.90;92.90;;;;;;5156086;27;20070;-62
2023/06/15 10:41:18;;;;;;;3.53;2.00;;;27.90;92.70;;;;;;5154740;27;20111;-62
2023/06/15 10:44:01;;;;;;;4.53;2.33;;;28.00;93.00;;;;;;5154934;27;20544;-63
2023/06/15 10:46:32;;;;;;;2.78;1.85;;;28.00;92.50;;;;;;5155754;27;20126;-62
2023/06/15 10:49:05;;;;;;;3.35;1.90;;;28.00;92.30;;;;;;5154863;27;20474;-63
2023/06/15 10:51:37;;;;;;;2.92;2.10;;;28.00;92.20;;;;;;5155102;27;20042;-63
2023/06/15 10:54:04;;;;;;;3.47;1.92;;;28.20;92.40;;;;;;5137865;27;20113;-62
2023/06/15 10:56:31;;;;;;;2.65;1.77;;;28.30;92.40;;;;;;5154947;27;20047;-64
2023/06/15 10:59:03;;;;;;;3.30;2.25;;;28.60;92.20;;;;;;5154954;27;20042;-63
2023/06/15 11:01:32;;;;;;;2.88;1.92;;;28.70;91.60;;;;;;5156128;27;20086;-64
2023/06/15 11:04:00;;;;;;;3.15;1.80;;;28.70;91.90;;;;;;5158771;27;20075;-64
2023/06/15 11:06:37;;;;;;;4.13;2.08;;;28.70;92.00;;;;;;5141166;27;20108;-64
2023/06/15 11:09:12;;;;;;;2.97;1.85;;;28.90;91.10;;;;;;5159589;27;20051;-64
2023/06/15 11:11:42;;;;;;;2.83;1.70;;;29.00;91.10;;;;;;5159090;27;20049;-63
2023/06/15 11:14:22;;;;;;;3.10;1.77;;;28.90;91.30;;;;;;5141677;27;20076;-64
2023/06/15 11:17:05;;;;;;;3.03;1.70;;;29.10;90.90;;;;;;5159718;27;20423;-64
2023/06/15 11:19:39;;;;;;;4.60;2.13;;;29.10;89.10;;;;;;5159436;27;20436;-64
2023/06/15 11:22:06;;;;;;;2.95;1.70;;;28.90;90.40;;;;;;5159793;27;20361;-64
2023/06/15 11:24:36;;;;;;;4.38;1.90;;;28.80;90.20;;;;;;5158707;27;20475;-64
2023/06/15 11:27:09;;;;;;;3.53;1.90;;;28.90;89.90;;;;;;5158403;27;20471;-64
2023/06/15 11:29:41;;;;;;;3.60;1.92;;;29.10;89.90;;;;;;5159399;27;20089;-64
2023/06/15 11:32:13;;;;;;;3.05;1.95;;;29.20;87.50;;;;;;5159416;27;20050;-65
2023/06/15 11:34:40;;;;;;;3.42;1.85;;;29.30;88.90;;;;;;5140444;27;20530;-65
2023/06/15 11:37:12;;;;;;;2.65;1.95;;;29.40;88.90;;;;;;5158866;27;20054;-64
2023/06/15 11:39:41;;;;;;;2.83;1.92;;;29.60;88.30;;;;;;5141024;27;20122;-64
2023/06/15 11:42:08;;;;;;;3.13;1.80;;;29.70;88.20;;;;;;5158089;27;20058;-64
2023/06/15 11:44:39;;;;;;;3.70;1.67;;;29.80;87.20;;;;;;5158642;27;20078;-64
2023/06/15 11:47:10;;;;;;;4.10;1.98;;;30.00;87.10;;;;;;5159297;27;20095;-64
2023/06/15 11:49:36;;;;;;;4.28;1.85;;;30.20;87.00;;;;;;5158675;27;20117;-64
2023/06/15 11:52:05;;;;;;;2.72;1.80;;;30.20;86.30;;;;;;5159118;27;20457;-64
2023/06/15 11:54:31;;;;;;;4.90;1.77;;;30.20;85.10;;;;;;5158812;27;20077;-64
2023/06/15 11:57:00;;;;;;;2.80;1.83;;;30.20;85.40;;;;;;5139680;27;20050;-64
2023/06/15 11:59:27;;;;;;;3.67;1.95;;;30.30;84.50;;;;;;5158062;27;20158;-64
2023/06/15 12:01:57;;;;;;;3.88;1.60;;;30.30;83.90;;;;;;5140149;27;20051;-64
2023/06/15 12:04:29;;;;;;;3.10;1.63;;;30.40;83.30;;;;;;5158354;27;20458;-64
2023/06/15 12:06:55;;;;;;;2.45;1.67;;;30.50;82.30;;;;;;5158798;27;20119;-64
2023/06/15 12:09:21;;;;;;;4.47;1.95;;;30.50;81.20;;;;;;5157893;27;20045;-65
2023/06/15 12:11:47;;;;;;;2.97;1.50;;;30.50;80.20;;;;;;5157813;27;20113;-64
2023/06/15 12:14:20;;;;;;;2.90;1.80;;;30.50;80.20;;;;;;5156812;27;20038;-64
2023/06/15 12:16:50;;;;;;;2.40;1.75;;;30.50;79.60;;;;;;5157568;27;20053;-65
2023/06/15 12:19:16;;;;;;;4.90;1.80;;;30.70;78.10;;;;;;5139704;27;20043;-64
2023/06/15 12:21:43;;;;;;;3.60;1.80;;;30.60;78.20;;;;;;5157703;27;20039;-64
2023/06/15 12:24:22;;;;;;;2.80;1.70;;;30.70;78.20;;;;;;5158128;27;20078;-65
2023/06/15 12:26:53;;;;;;;3.25;1.60;;;30.80;78.50;;;;;;5157957;27;20070;-65
2023/06/15 12:29:20;;;;;;;3.80;1.50;;;31.00;77.30;;;;;;5158182;27;20034;-64
2023/06/15 12:31:52;;;;;;;2.85;1.77;;;31.00;77.50;;;;;;5157407;27;20047;-64
2023/06/15 12:34:24;;;;;;;3.50;1.90;;;31.20;76.60;;;;;;5157436;27;20078;-64
2023/06/15 12:36:50;;;;;;;4.35;1.77;;;31.10;75.70;;;;;;5157982;27;20045;-64
2023/06/15 12:39:18;;;;;;;2.95;1.80;;;31.10;76.00;;;;;;5157388;27;20043;-64
2023/06/15 12:41:44;;;;;;;3.80;1.90;;;31.30;76.70;;;;;;5157793;27;20050;-64
2023/06/15 12:44:11;;;;;;;2.38;1.70;;;31.50;75.60;;;;;;5157871;27;20085;-64
2023/06/15 12:46:38;;;;;;;3.60;1.60;;;31.60;75.60;;;;;;5157189;27;20061;-64
2023/06/15 12:49:04;;;;;;;2.88;1.70;;;31.80;75.60;;;;;;5138021;27;20126;-64